Time;durP1;ratioP1;P1;durP2;ratioP2;P2;SDS_P1;SDS_P2;PMS_P1;PMS_P2;Temp;Humidity;BMP_temperature;BMP_pressure;BME280_temperature;BME280_humidity;BME280_pressure;Samples;Min_cycle;Max_cycle;Signal;HPM_P1;HPM_P2
2022/11/21 00:00:51;;;;;;;2.33;1.10;;;;;;;2.35;100.00;93234.50;4892910;29;20486;-55
2022/11/21 00:03:18;;;;;;;2.15;0.90;;;;;;;2.20;100.00;93239.09;4892966;29;20045;-56
2022/11/21 00:05:47;;;;;;;2.63;0.93;;;;;;;2.20;100.00;93232.91;4893088;29;20041;-56
2022/11/21 00:08:17;;;;;;;3.85;1.10;;;;;;;2.14;100.00;93235.19;4893048;29;20096;-51
2022/11/21 00:10:44;;;;;;;3.83;1.10;;;;;;;2.13;100.00;93262.63;4874738;29;20053;-54
2022/11/21 00:13:14;;;;;;;2.77;1.10;;;;;;;2.12;100.00;93256.44;4893925;29;20037;-53
2022/11/21 00:15:41;;;;;;;3.00;1.10;;;;;;;2.08;100.00;93247.53;4893578;29;20055;-52
2022/11/21 00:18:08;;;;;;;2.53;1.00;;;;;;;2.06;100.00;93244.41;4893214;29;20045;-53
2022/11/21 00:20:36;;;;;;;2.28;1.08;;;;;;;2.08;100.00;93247.53;4893174;29;20041;-51
2022/11/21 00:23:03;;;;;;;2.00;0.98;;;;;;;2.08;100.00;93233.22;4892281;29;20055;-57
2022/11/21 00:25:29;;;;;;;3.50;1.00;;;;;;;2.06;100.00;93230.13;4893049;29;20056;-53
2022/11/21 00:27:56;;;;;;;2.53;1.00;;;;;;;2.08;100.00;93225.09;4892704;29;20040;-55
2022/11/21 00:30:23;;;;;;;3.20;1.50;;;;;;;2.07;100.00;93226.25;4892886;29;20051;-53
2022/11/21 00:32:50;;;;;;;3.08;1.30;;;;;;;2.06;100.00;93222.78;4892366;29;20055;-53
2022/11/21 00:35:16;;;;;;;2.60;1.20;;;;;;;2.10;100.00;93218.16;4892778;29;20047;-55
2022/11/21 00:37:43;;;;;;;2.73;1.17;;;;;;;2.14;100.00;93218.94;4892627;29;20055;-51
2022/11/21 00:40:10;;;;;;;11.40;2.97;;;;;;;2.20;100.00;93213.94;4902657;29;20106;-49
2022/11/21 00:42:37;;;;;;;5.30;2.05;;;;;;;2.17;100.00;93207.38;4876540;29;20040;-52
2022/11/21 00:45:04;;;;;;;3.00;1.00;;;;;;;2.18;100.00;93200.03;4892391;29;20040;-56
2022/11/21 00:47:31;;;;;;;2.28;1.10;;;;;;;2.15;100.00;93192.66;4872878;29;20048;-55
2022/11/21 00:49:57;;;;;;;4.37;1.30;;;;;;;2.15;100.00;93201.56;4888484;29;20064;-54
2022/11/21 00:52:24;;;;;;;2.38;0.90;;;;;;;2.17;100.00;93195.75;4892513;29;20049;-55
2022/11/21 00:54:51;;;;;;;3.90;1.30;;;;;;;2.20;100.00;93184.94;4892472;29;20048;-53
2022/11/21 00:57:18;;;;;;;3.47;1.20;;;;;;;2.16;100.00;93194.97;4892702;29;20048;-52
2022/11/21 00:59:44;;;;;;;3.88;1.25;;;;;;;2.19;99.78;93193.44;4875757;29;20052;-53
2022/11/21 01:02:12;;;;;;;30.43;13.23;;;;;;;2.25;99.80;93186.50;4892592;29;20049;-54
2022/11/21 01:04:39;;;;;;;4.38;1.00;;;;;;;2.22;99.22;93183.81;4892900;29;20045;-53
2022/11/21 01:07:06;;;;;;;2.22;1.10;;;;;;;2.24;98.35;93192.31;4891521;29;20051;-59
2022/11/21 01:09:32;;;;;;;1.75;0.70;;;;;;;2.24;98.41;93190.38;4876196;29;20091;-57
2022/11/21 01:11:59;;;;;;;3.03;1.10;;;;;;;2.26;97.45;93188.06;4896758;29;20060;-56
2022/11/21 01:14:26;;;;;;;4.57;1.53;;;;;;;2.29;96.90;93176.47;4892678;29;20235;-55
2022/11/21 01:16:53;;;;;;;2.20;0.80;;;;;;;2.29;97.04;93170.28;4892354;29;20051;-52
2022/11/21 01:19:19;;;;;;;2.92;1.00;;;;;;;2.35;96.66;93166.03;4875571;29;20063;-52
2022/11/21 01:21:46;;;;;;;2.10;1.05;;;;;;;2.35;96.31;93149.78;4877210;29;20057;-51
2022/11/21 01:24:13;;;;;;;4.53;1.20;;;;;;;2.33;95.97;93150.16;4891492;29;20044;-49
2022/11/21 01:26:39;;;;;;;2.67;0.80;;;;;;;2.35;96.44;93150.56;4892610;29;20063;-53
2022/11/21 01:29:07;;;;;;;2.78;1.08;;;;;;;2.36;96.37;93152.13;4891687;29;20097;-56
2022/11/21 01:31:34;;;;;;;3.22;1.00;;;;;;;2.36;96.29;93133.19;4892315;29;20053;-49
2022/11/21 01:34:01;;;;;;;1.85;0.88;;;;;;;2.31;95.99;93136.25;4892693;29;20437;-49
2022/11/21 01:36:30;;;;;;;2.20;0.95;;;;;;;2.38;95.74;93133.56;4895850;29;20067;-52
2022/11/21 01:39:00;;;;;;;2.50;0.80;;;;;;;2.37;95.99;93129.31;4896767;29;20063;-53
2022/11/21 01:41:41;;;;;;;3.60;1.08;;;;;;;2.45;95.77;93135.50;4883098;29;20044;-48
2022/11/21 01:44:48;;;;;;;2.60;0.98;;;;;;;2.45;96.08;93123.91;4894978;29;20856;-57
2022/11/21 01:47:16;;;;;;;3.55;0.82;;;;;;;2.50;95.38;93121.63;4894752;29;20838;-55
2022/11/21 01:49:44;;;;;;;3.53;0.88;;;;;;;2.53;95.07;93120.06;4878589;29;20049;-52
2022/11/21 01:52:17;;;;;;;6.50;1.13;;;;;;;2.50;95.93;93115.44;4895741;29;20059;-53
2022/11/21 01:54:55;;;;;;;3.28;0.93;;;;;;;2.54;96.53;93121.63;4895454;29;20044;-53
2022/11/21 01:57:24;;;;;;;3.38;1.20;;;;;;;2.54;97.14;93119.69;4893685;29;20073;-49
2022/11/21 02:00:00;;;;;;;4.53;1.10;;;;;;;2.53;97.19;93110.00;4895280;29;20049;-49
2022/11/21 02:02:30;;;;;;;2.47;1.02;;;;;;;2.46;98.26;93098.41;4896153;29;20048;-52
2022/11/21 02:04:58;;;;;;;5.27;1.57;;;;;;;2.36;99.21;93084.44;4895213;29;20044;-51
2022/11/21 02:07:29;;;;;;;4.22;1.10;;;;;;;2.40;99.68;93090.63;4895229;29;20048;-54
2022/11/21 02:10:00;;;;;;;3.28;1.52;;;;;;;2.29;99.57;93094.47;4895047;29;20649;-53
2022/11/21 02:12:39;;;;;;;2.90;1.08;;;;;;;2.31;100.00;93094.88;4878731;29;20100;-51
2022/11/21 02:15:07;;;;;;;3.55;1.33;;;;;;;2.23;100.00;93090.59;4894253;29;20893;-50
2022/11/21 02:17:33;;;;;;;2.77;1.10;;;;;;;2.20;100.00;93087.50;4894961;29;20040;-53
2022/11/21 02:20:06;;;;;;;3.30;1.13;;;;;;;2.22;100.00;93087.13;4894975;29;20045;-55
2022/11/21 02:22:53;;;;;;;2.70;0.90;;;;;;;2.13;100.00;93079.38;4878118;29;20045;-51
2022/11/21 02:25:31;;;;;;;4.43;1.10;;;;;;;2.10;100.00;93082.81;4894038;29;20418;-53
2022/11/21 02:28:00;;;;;;;3.10;1.30;;;;;;;1.98;100.00;93070.41;4877941;29;20103;-55
2022/11/21 02:30:34;;;;;;;2.43;1.30;;;;;;;1.91;100.00;93083.13;4894731;29;20055;-55
2022/11/21 02:33:01;;;;;;;2.13;1.10;;;;;;;1.94;100.00;93072.34;4894527;29;20060;-51
2022/11/21 02:35:27;;;;;;;2.58;1.02;;;;;;;2.00;100.00;93076.22;4894766;29;20561;-54
2022/11/21 02:37:59;;;;;;;3.45;1.08;;;;;;;1.98;100.00;93083.16;4874831;29;20059;-49
2022/11/21 02:40:32;;;;;;;2.85;0.90;;;;;;;1.99;100.00;93066.56;4901903;29;20052;-55
2022/11/21 02:43:30;;;;;;;2.37;1.03;;;;;;;2.03;100.00;93069.25;4880185;29;20051;-54
2022/11/21 02:45:57;;;;;;;2.88;1.08;;;;;;;2.09;100.00;93072.38;4879370;29;20063;-50
2022/11/21 02:48:24;;;;;;;2.97;1.40;;;;;;;2.14;100.00;93077.44;4894395;29;20046;-53
2022/11/21 02:50:51;;;;;;;1.90;0.80;;;;;;;2.20;100.00;93071.25;4877377;29;20049;-54
2022/11/21 02:53:18;;;;;;;2.05;0.90;;;;;;;2.23;100.00;93061.56;4894184;29;20435;-51
2022/11/21 02:55:45;;;;;;;2.43;1.00;;;;;;;2.25;100.00;93075.50;4877874;29;20044;-53
2022/11/21 02:58:12;;;;;;;2.42;0.80;;;;;;;2.24;100.00;93057.72;4893476;29;20044;-52
2022/11/21 03:00:40;;;;;;;2.22;1.00;;;;;;;2.29;100.00;93070.09;4859849;29;20045;-50
2022/11/21 03:03:07;;;;;;;2.10;0.80;;;;;;;2.31;100.00;93052.31;4889607;29;20949;-52
2022/11/21 03:05:34;;;;;;;2.65;0.80;;;;;;;2.31;100.00;93055.03;4894087;29;20494;-53
2022/11/21 03:08:02;;;;;;;2.23;0.97;;;;;;;2.25;100.00;93045.72;4894119;29;20049;-54
2022/11/21 03:10:29;;;;;;;1.90;0.80;;;;;;;2.31;100.00;93055.03;4894336;29;20050;-56
2022/11/21 03:12:59;;;;;;;4.00;0.85;;;;;;;2.31;100.00;93046.91;4893726;29;20045;-50
2022/11/21 03:15:36;;;;;;;1.80;0.90;;;;;;;2.33;100.00;93047.28;4894114;29;20048;-54
2022/11/21 03:18:03;;;;;;;2.00;0.80;;;;;;;2.31;100.00;93049.59;4893962;29;20119;-50
2022/11/21 03:20:32;;;;;;;2.40;0.80;;;;;;;2.31;100.00;93041.47;4877416;29;20045;-55
2022/11/21 03:22:58;;;;;;;2.30;0.82;;;;;;;2.30;100.00;93034.53;4877246;29;20053;-54
2022/11/21 03:25:26;;;;;;;2.17;0.80;;;;;;;2.26;100.00;93033.75;4893857;29;20048;-54
2022/11/21 03:27:53;;;;;;;2.38;0.63;;;;;;;2.27;100.00;93027.16;4893775;29;20048;-51
2022/11/21 03:30:24;;;;;;;1.50;0.65;;;;;;;2.26;100.00;93028.34;4893736;29;20055;-54
2022/11/21 03:32:54;;;;;;;1.80;0.83;;;;;;;2.23;100.00;93031.03;4893558;29;20111;-49
2022/11/21 03:35:20;;;;;;;1.95;0.80;;;;;;;2.26;100.00;93033.00;4893479;29;20099;-56
2022/11/21 03:37:47;;;;;;;1.73;0.70;;;;;;;2.23;100.00;93036.44;4893398;29;20491;-54
2022/11/21 03:40:14;;;;;;;1.58;0.57;;;;;;;2.19;100.00;93042.66;4905034;29;20099;-56
2022/11/21 03:42:41;;;;;;;2.25;0.93;;;;;;;2.18;100.00;93040.31;4892491;29;20044;-55
2022/11/21 03:45:08;;;;;;;1.77;0.77;;;;;;;2.13;100.00;93035.25;4893865;29;20055;-56
2022/11/21 03:47:35;;;;;;;1.70;0.60;;;;;;;2.00;100.00;93035.63;4893562;29;20041;-54
2022/11/21 03:50:02;;;;;;;2.20;0.65;;;;;;;1.97;100.00;93030.19;4893258;29;20044;-54
2022/11/21 03:52:29;;;;;;;1.92;0.77;;;;;;;1.98;100.00;93035.22;4893390;29;20137;-53
2022/11/21 03:54:56;;;;;;;1.80;1.10;;;;;;;1.95;100.00;93032.50;4892998;29;20096;-52
2022/11/21 03:57:22;;;;;;;1.50;0.60;;;;;;;1.89;100.00;93040.25;4891681;29;20045;-55
2022/11/21 03:59:49;;;;;;;1.60;0.80;;;;;;;1.79;100.00;93027.44;4875208;29;20096;-53
2022/11/21 04:02:16;;;;;;;2.95;0.70;;;;;;;1.76;100.00;93022.81;4892630;29;20048;-55
2022/11/21 04:04:42;;;;;;;1.80;0.77;;;;;;;1.66;100.00;93031.66;4893133;29;20048;-51
2022/11/21 04:07:09;;;;;;;1.80;0.80;;;;;;;1.64;100.00;93017.75;4893219;29;20048;-49
2022/11/21 04:09:36;;;;;;;1.70;0.67;;;;;;;1.69;100.00;93028.97;4893139;29;20048;-52
2022/11/21 04:12:02;;;;;;;1.83;0.68;;;;;;;1.76;100.00;93020.09;4876179;29;20044;-54
2022/11/21 04:14:33;;;;;;;1.50;0.70;;;;;;;1.70;100.00;93027.03;4876445;29;20059;-52
2022/11/21 04:17:00;;;;;;;1.92;0.75;;;;;;;1.70;100.00;93027.81;4892434;29;20045;-55
2022/11/21 04:19:27;;;;;;;2.72;0.82;;;;;;;1.66;100.00;93024.31;4892958;29;20041;-53
2022/11/21 04:21:53;;;;;;;1.40;0.60;;;;;;;1.68;100.00;93027.41;4892786;29;20048;-54
2022/11/21 04:24:20;;;;;;;1.60;0.77;;;;;;;1.69;100.00;93031.69;4893079;29;20044;-54
2022/11/21 04:26:47;;;;;;;1.60;0.52;;;;;;;1.72;100.00;93030.13;4892648;29;20047;-53
2022/11/21 04:29:13;;;;;;;1.98;0.77;;;;;;;1.85;100.00;93041.38;4892941;29;20092;-51
2022/11/21 04:31:40;;;;;;;2.47;0.80;;;;;;;1.84;100.00;93037.13;4892591;29;20120;-53
2022/11/21 04:34:07;;;;;;;2.50;0.90;;;;;;;1.79;100.00;93044.47;4875562;29;21716;-54
2022/11/21 04:36:33;;;;;;;1.80;0.82;;;;;;;1.78;100.00;93044.84;4892873;29;20052;-50
2022/11/21 04:39:00;;;;;;;1.98;0.50;;;;;;;1.90;100.00;93047.19;4894078;29;20049;-52
2022/11/21 04:41:27;;;;;;;2.22;0.88;;;;;;;1.85;100.00;93042.16;4903171;29;20048;-56
2022/11/21 04:43:53;;;;;;;1.83;0.90;;;;;;;1.92;100.00;93042.16;4892447;29;20067;-54
2022/11/21 04:46:20;;;;;;;2.00;0.97;;;;;;;1.96;100.00;93055.72;4892402;29;20045;-56
2022/11/21 04:48:47;;;;;;;2.30;0.90;;;;;;;2.03;100.00;93044.13;4875743;29;20041;-48
2022/11/21 04:51:13;;;;;;;3.28;1.10;;;;;;;2.03;100.00;93044.13;4892994;29;20054;-51
2022/11/21 04:53:40;;;;;;;3.03;1.10;;;;;;;1.93;100.00;93054.56;4876025;29;20433;-55
2022/11/21 04:56:09;;;;;;;2.72;1.02;;;;;;;1.87;100.00;93052.59;4892038;29;20938;-50
2022/11/21 04:58:36;;;;;;;2.40;1.10;;;;;;;1.82;100.00;93051.03;4891988;29;20056;-54
2022/11/21 05:01:07;;;;;;;2.65;1.17;;;;;;;1.93;100.00;93051.06;4892874;29;20040;-50
2022/11/21 05:03:34;;;;;;;2.80;1.10;;;;;;;1.86;100.00;93045.63;4892832;29;20084;-54
2022/11/21 05:06:03;;;;;;;2.75;1.45;;;;;;;1.84;100.00;93048.72;4892180;29;20044;-52
2022/11/21 05:08:30;;;;;;;5.65;3.10;;;;;;;1.94;100.00;93053.38;4892465;29;20037;-50
2022/11/21 05:13:42;;;;;;;3.17;1.83;;;;;;;1.78;100.00;93052.94;4896023;29;20052;-52
2022/11/21 05:16:08;;;;;;;3.25;1.88;;;;;;;1.75;100.00;93057.19;4896560;29;20051;-52
2022/11/21 05:18:35;;;;;;;4.07;2.28;;;;;;;1.82;100.00;93051.03;4879596;29;20059;-52
2022/11/21 05:21:02;;;;;;;4.38;2.05;;;;;;;1.91;100.00;93048.75;4895859;29;20044;-54
2022/11/21 05:23:29;;;;;;;62.20;27.43;;;;;;;1.92;100.00;93050.28;4896086;29;20052;-51
2022/11/21 05:25:55;;;;;;;20.95;10.32;;;;;;;1.85;100.00;93049.50;4895816;29;20041;-50
2022/11/21 05:28:22;;;;;;;6.25;2.90;;;;;;;1.87;100.00;93058.00;4895779;29;20059;-52
2022/11/21 05:30:49;;;;;;;4.28;1.63;;;;;;;1.88;100.00;93054.16;4895457;29;20041;-50
2022/11/21 05:33:15;;;;;;;3.70;1.35;;;;;;;1.93;100.00;93046.44;4896006;29;20059;-53
2022/11/21 05:35:42;;;;;;;3.80;2.00;;;;;;;1.94;100.00;93045.28;4895482;29;20048;-52
2022/11/21 05:38:09;;;;;;;13.98;6.38;;;;;;;1.96;100.00;93058.44;4896019;29;20095;-53
2022/11/21 05:40:36;;;;;;;14.77;6.93;;;;;;;1.89;100.00;93061.09;4902928;29;20044;-57
2022/11/21 05:45:49;;;;;;;17.85;7.25;;;;;;;1.93;100.00;93064.59;4895529;29;20500;-50
2022/11/21 05:48:16;;;;;;;4.10;1.50;;;;;;;1.95;100.00;93070.38;4895863;29;20097;-51
2022/11/21 05:50:48;;;;;;;4.65;1.88;;;;;;;2.01;100.00;93071.56;4894702;29;20056;-53
2022/11/21 05:53:15;;;;;;;5.47;2.50;;;;;;;1.92;100.00;93082.75;4895871;29;20045;-52
2022/11/21 05:55:43;;;;;;;3.10;1.60;;;;;;;1.96;100.00;93078.13;4894655;29;20878;-55
2022/11/21 05:58:09;;;;;;;4.10;1.50;;;;;;;1.83;100.00;93065.31;4894369;29;20104;-54
2022/11/21 06:00:37;;;;;;;15.73;5.87;;;;;;;1.91;100.00;93069.59;4896090;29;20040;-53
2022/11/21 06:03:27;;;;;;;16.77;5.82;;;;;;;1.74;100.00;93063.75;4895192;29;20044;-54
2022/11/21 06:05:59;;;;;;;7.50;3.25;;;;;;;1.74;100.00;93054.88;4895006;29;20051;-56
2022/11/21 06:08:27;;;;;;;39.30;19.67;;;;;;;1.69;100.00;93068.75;4895091;29;20047;-50
2022/11/21 06:10:54;;;;;;;8.23;3.90;;;;;;;1.63;100.00;93067.56;4894486;29;20044;-55
2022/11/21 06:13:23;;;;;;;9.97;3.30;;;;;;;1.61;100.00;93067.97;4895254;29;20047;-54
2022/11/21 06:15:53;;;;;;;21.27;10.60;;;;;;;1.58;100.00;93060.59;4894833;29;20052;-53
2022/11/21 06:18:20;;;;;;;12.35;6.38;;;;;;;1.53;100.00;93058.22;4882607;29;20063;-53
2022/11/21 06:20:46;;;;;;;14.95;6.72;;;;;;;1.49;100.00;93063.66;4894037;29;20053;-52
2022/11/21 06:23:13;;;;;;;13.38;5.90;;;;;;;1.57;100.00;93061.72;4895185;29;20509;-53
2022/11/21 06:25:41;;;;;;;10.93;5.27;;;;;;;1.50;100.00;93056.31;4894971;29;20051;-56
2022/11/21 06:28:08;;;;;;;8.18;4.00;;;;;;;1.35;100.00;93055.47;4877491;29;21713;-53
2022/11/21 06:30:35;;;;;;;9.00;4.25;;;;;;;1.38;100.00;93065.50;4894544;29;20526;-52
2022/11/21 06:33:04;;;;;;;7.10;4.00;;;;;;;1.34;100.00;93049.25;4894325;29;20498;-54
2022/11/21 06:35:31;;;;;;;8.48;3.60;;;;;;;1.36;100.00;93046.19;4877823;29;20260;-56
2022/11/21 06:37:58;;;;;;;6.90;3.67;;;;;;;1.41;100.00;93053.94;4894257;29;20107;-52
2022/11/21 06:40:25;;;;;;;5.68;2.80;;;;;;;1.44;100.00;93064.00;4906030;29;20044;-56
2022/11/21 06:42:52;;;;;;;7.10;3.38;;;;;;;1.26;100.00;93055.78;4894397;29;20057;-53
2022/11/21 06:45:18;;;;;;;6.90;3.20;;;;;;;1.23;100.00;93064.66;4894877;29;20142;-56
2022/11/21 06:47:45;;;;;;;5.32;2.75;;;;;;;1.25;100.00;93065.06;4893919;29;20586;-55
2022/11/21 06:50:12;;;;;;;4.87;2.20;;;;;;;1.35;100.00;93071.69;4894590;29;20104;-53
2022/11/21 06:52:38;;;;;;;5.88;2.50;;;;;;;1.40;100.00;93069.38;4894264;29;20053;-53
2022/11/21 06:55:05;;;;;;;7.03;2.70;;;;;;;1.47;100.00;93070.56;4893704;29;20044;-54
2022/11/21 06:57:33;;;;;;;18.77;6.88;;;;;;;1.48;100.00;93064.78;4877733;29;20052;-50
2022/11/21 07:00:00;;;;;;;113.13;28.70;;;;;;;1.50;100.00;93073.28;4893896;29;20045;-52
2022/11/21 07:02:26;;;;;;;22.43;8.13;;;;;;;1.51;100.00;93066.75;4894394;29;20040;-57
2022/11/21 07:04:53;;;;;;;13.75;3.90;;;;;;;1.52;100.00;93062.09;4894004;29;20047;-52
2022/11/21 07:07:20;;;;;;;7.68;3.70;;;;;;;1.59;100.00;93062.16;4893442;29;20049;-49
2022/11/21 07:09:46;;;;;;;7.32;3.65;;;;;;;1.65;100.00;93067.94;4894452;29;20454;-50
2022/11/21 07:14:59;;;;;;;12.43;4.93;;;;;;;1.65;100.00;93066.03;4893832;29;20057;-52
2022/11/21 07:17:26;;;;;;;10.45;5.10;;;;;;;1.74;100.00;93071.09;4893417;29;20052;-54
2022/11/21 07:19:52;;;;;;;12.50;6.18;;;;;;;1.81;100.00;93065.69;4893392;29;20044;-52
2022/11/21 07:22:19;;;;;;;9.20;4.47;;;;;;;1.94;100.00;93074.28;4893654;29;20484;-54
2022/11/21 07:24:46;;;;;;;9.50;3.53;;;;;;;1.99;100.00;93080.09;4891238;29;20041;-56
2022/11/21 07:27:12;;;;;;;8.03;3.60;;;;;;;2.08;100.00;93079.72;4894077;29;20047;-54
2022/11/21 07:29:39;;;;;;;7.20;4.20;;;;;;;2.22;100.00;93073.59;4893247;29;20049;-55
2022/11/21 07:32:06;;;;;;;7.00;3.60;;;;;;;2.32;100.00;93067.41;4875437;29;20629;-54
2022/11/21 07:34:33;;;;;;;5.15;2.22;;;;;;;2.16;100.00;93065.06;4892832;29;20033;-53
2022/11/21 07:37:00;;;;;;;14.82;6.45;;;;;;;2.32;100.00;93059.28;4893401;29;20052;-52
2022/11/21 07:39:26;;;;;;;6.73;3.17;;;;;;;2.49;100.00;93055.06;4898796;29;20409;-56
2022/11/21 07:41:54;;;;;;;5.32;2.50;;;;;;;2.61;100.00;93053.91;4877225;29;20491;-55
2022/11/21 07:44:21;;;;;;;5.57;2.78;;;;;;;2.92;99.02;93048.91;4893975;29;20051;-56
2022/11/21 07:46:48;;;;;;;5.55;2.03;;;;;;;3.91;97.60;93057.97;4892910;29;20048;-55
2022/11/21 07:49:15;;;;;;;4.03;1.70;;;;;;;4.08;92.04;93050.13;4893917;29;20045;-55
2022/11/21 07:51:41;;;;;;;7.10;2.20;;;;;;;4.93;90.78;93043.38;4893096;29;20067;-54
2022/11/21 07:54:08;;;;;;;4.53;1.98;;;;;;;7.08;84.03;93026.41;4893782;29;20052;-56
2022/11/21 07:56:34;;;;;;;7.68;3.55;;;;;;;7.65;74.71;93040.28;4893345;29;20045;-53
2022/11/21 07:59:01;;;;;;;5.07;2.75;;;;;;;9.90;69.04;93036.41;4876728;29;20052;-53
2022/11/21 08:01:28;;;;;;;4.45;2.40;;;;;;;11.69;62.93;93039.31;4893743;29;20048;-53
2022/11/21 08:03:54;;;;;;;5.23;2.40;;;;;;;9.51;64.46;93036.22;4893002;29;20040;-52
2022/11/21 08:06:21;;;;;;;5.05;2.53;;;;;;;9.05;65.97;93034.63;4892465;29;20070;-54
2022/11/21 08:08:52;;;;;;;4.82;2.17;;;;;;;8.08;68.29;93050.38;4893443;29;20107;-51
2022/11/21 08:11:19;;;;;;;5.13;1.70;;;;;;;6.88;74.66;93050.09;4893459;29;20043;-53
2022/11/21 08:13:46;;;;;;;8.88;3.80;;;;;;;7.60;71.27;93045.00;4892715;29;20048;-51
2022/11/21 08:16:13;;;;;;;12.20;6.33;;;;;;;6.46;74.08;93044.09;4893565;29;20047;-53
2022/11/21 08:18:40;;;;;;;20.13;10.32;;;;;;;7.08;75.25;93037.31;4876595;29;20242;-55
2022/11/21 08:21:06;;;;;;;15.82;8.55;;;;;;;7.18;71.69;93032.88;4875745;29;21391;-53
2022/11/21 08:23:33;;;;;;;15.93;8.20;;;;;;;6.49;74.56;93041.31;4876561;29;20058;-52
2022/11/21 08:26:00;;;;;;;32.53;14.45;;;;;;;6.16;78.55;93032.03;4892950;29;20071;-55
2022/11/21 08:28:26;;;;;;;16.47;7.33;;;;;;;6.71;74.93;93032.84;4876448;29;20051;-52
2022/11/21 08:30:53;;;;;;;15.00;7.30;;;;;;;7.36;73.49;93027.09;4892295;29;20055;-52
2022/11/21 08:33:20;;;;;;;13.05;6.47;;;;;;;9.17;67.99;93020.25;4893028;29;20053;-55
2022/11/21 08:35:46;;;;;;;9.27;3.88;;;;;;;10.53;61.16;93024.13;4892068;29;20693;-56
2022/11/21 08:38:13;;;;;;;10.30;4.75;;;;;;;12.82;55.75;93014.88;4893144;29;20052;-53
2022/11/21 08:40:40;;;;;;;8.90;4.60;;;;;;;13.59;52.67;93001.97;4898004;29;20045;-53
2022/11/21 08:43:08;;;;;;;7.65;4.38;;;;;;;13.65;51.24;93004.13;4891962;29;20044;-56
2022/11/21 08:45:36;;;;;;;7.45;4.03;;;;;;;14.62;48.72;92994.44;4893095;29;20339;-54
2022/11/21 08:48:07;;;;;;;6.10;3.10;;;;;;;13.36;51.00;92997.03;4892693;29;20055;-54
2022/11/21 08:50:34;;;;;;;5.97;3.38;;;;;;;14.86;47.48;92995.28;4880615;29;20041;-57
2022/11/21 08:53:01;;;;;;;6.47;3.50;;;;;;;13.56;49.57;92986.38;4892722;29;20049;-53
2022/11/21 08:55:29;;;;;;;12.02;6.57;;;;;;;10.63;56.89;92989.34;4893071;29;20051;-53
2022/11/21 08:57:56;;;;;;;6.28;3.00;;;;;;;9.43;60.44;92993.78;4892360;29;20498;-53
2022/11/21 09:00:22;;;;;;;4.45;1.73;;;;;;;8.08;65.24;92991.03;4893069;29;20057;-53
2022/11/21 09:02:49;;;;;;;4.80;1.90;;;;;;;7.46;69.37;92998.09;4891861;29;20041;-53
2022/11/21 09:05:16;;;;;;;4.23;2.00;;;;;;;6.41;73.85;92996.28;4893153;29;20482;-50
2022/11/21 09:07:43;;;;;;;3.95;1.88;;;;;;;5.74;76.81;93001.41;4892339;29;20044;-51
2022/11/21 09:10:09;;;;;;;3.85;1.60;;;;;;;5.58;78.38;92993.81;4892933;29;20049;-51
2022/11/21 09:12:36;;;;;;;3.65;1.20;;;;;;;4.97;79.35;93000.63;4892821;29;20352;-53
2022/11/21 09:18:06;;;;;;;4.50;1.23;;;;;;;4.78;83.55;92995.72;4892115;29;20491;-55
2022/11/21 09:20:38;;;;;;;3.88;0.98;;;;;;;4.76;84.29;92992.66;4892731;29;20044;-52
2022/11/21 09:23:09;;;;;;;4.65;1.42;;;;;;;4.69;85.23;92988.06;4892340;29;20055;-54
2022/11/21 09:25:37;;;;;;;3.22;1.45;;;;;;;5.18;83.69;93001.59;4892719;29;20095;-52
2022/11/21 09:28:05;;;;;;;3.83;1.70;;;;;;;5.91;81.77;92994.19;4892144;29;20056;-51
2022/11/21 09:30:33;;;;;;;4.80;1.47;;;;;;;6.38;77.43;92991.66;4892537;29;20044;-51
2022/11/21 09:33:00;;;;;;;3.40;1.48;;;;;;;6.07;78.26;92983.50;4891766;29;20104;-53
2022/11/21 09:35:28;;;;;;;3.75;1.10;;;;;;;6.29;78.35;92977.75;4892647;29;20384;-53
2022/11/21 09:37:54;;;;;;;4.30;1.35;;;;;;;7.02;76.07;92981.69;4890652;29;20059;-53
2022/11/21 09:40:22;;;;;;;3.67;1.15;;;;;;;6.91;75.58;92981.88;4903033;29;20087;-55
2022/11/21 09:43:05;;;;;;;3.07;1.10;;;;;;;6.80;74.03;92981.25;4892032;29;20140;-54
2022/11/21 09:45:36;;;;;;;4.53;1.10;;;;;;;6.14;77.65;92974.47;4892669;29;20045;-52
2022/11/21 09:48:10;;;;;;;3.20;1.40;;;;;;;5.91;77.92;92966.94;4892235;29;20045;-48
2022/11/21 09:50:42;;;;;;;3.45;1.20;;;;;;;6.38;78.84;92972.59;4892498;29;20051;-56
2022/11/21 09:53:11;;;;;;;6.07;1.40;;;;;;;7.08;74.70;92968.34;4891791;29;21591;-50
2022/11/21 09:55:45;;;;;;;5.80;1.40;;;;;;;7.19;75.06;92968.94;4893885;29;20488;-51
2022/11/21 09:58:23;;;;;;;4.60;1.48;;;;;;;8.88;71.30;92957.25;4894951;29;20700;-55
2022/11/21 10:00:51;;;;;;;4.18;1.20;;;;;;;9.67;66.62;92949.75;4894963;29;20052;-53
2022/11/21 10:03:23;;;;;;;4.88;1.17;;;;;;;9.72;63.49;92941.00;4895633;29;20050;-54
2022/11/21 10:05:58;;;;;;;3.63;1.55;;;;;;;8.30;69.63;92925.72;4894912;29;20066;-52
2022/11/21 10:09:06;;;;;;;3.93;1.33;;;;;;;7.49;72.58;92915.38;4895606;29;20389;-51
2022/11/21 10:15:04;;;;;;;4.47;1.30;;;;;;;6.51;75.83;92910.09;4879713;29;20376;-53
2022/11/21 10:17:54;;;;;;;6.70;1.85;;;;;;;6.90;75.10;92900.47;4895184;29;20067;-53
2022/11/21 10:20:40;;;;;;;3.45;1.20;;;;;;;7.66;72.10;92902.53;4864965;29;21473;-55
2022/11/21 10:23:41;;;;;;;4.97;1.23;;;;;;;10.39;61.93;92894.41;4894428;29;20728;-54
2022/11/21 10:26:21;;;;;;;4.72;1.17;;;;;;;10.58;60.31;92895.41;4877725;29;20067;-57
2022/11/21 10:29:14;;;;;;;5.55;1.20;;;;;;;11.69;56.96;92884.59;4877701;29;20045;-54
2022/11/21 10:31:42;;;;;;;3.15;1.10;;;;;;;14.17;50.91;92875.38;4891568;29;20053;-56
2022/11/21 10:34:16;;;;;;;6.78;1.38;;;;;;;12.71;52.40;92870.13;4894412;29;20436;-51
2022/11/21 10:36:51;;;;;;;3.50;1.30;;;;;;;13.84;48.53;92872.53;4893333;29;20448;-54
2022/11/21 10:39:30;;;;;;;5.72;1.40;;;;;;;14.22;49.61;92852.66;4899486;29;20048;-54
2022/11/21 10:42:11;;;;;;;4.15;1.20;;;;;;;16.31;43.21;92860.44;4898217;29;20078;-53
2022/11/21 10:47:30;;;;;;;4.30;1.20;;;;;;;11.90;49.95;92844.63;4866968;29;20528;-56
2022/11/21 10:50:03;;;;;;;4.30;1.20;;;;;;;12.87;49.62;92844.31;4876950;29;20041;-51
2022/11/21 10:52:34;;;;;;;2.55;0.90;;;;;;;12.69;49.50;92839.53;4894696;29;20051;-50
2022/11/21 10:55:03;;;;;;;6.57;1.08;;;;;;;12.82;48.92;92827.63;4894210;29;20479;-55
2022/11/21 10:57:48;;;;;;;4.10;1.02;;;;;;;11.52;50.43;92834.59;4894331;29;20478;-53
2022/11/21 11:00:26;;;;;;;6.63;1.40;;;;;;;10.18;55.96;92829.22;4893514;29;20780;-52
2022/11/21 11:02:55;;;;;;;5.80;1.60;;;;;;;9.77;57.42;92820.66;4893683;29;20502;-54
2022/11/21 11:05:27;;;;;;;7.32;2.63;;;;;;;11.14;52.95;92808.06;4894644;29;20052;-54
2022/11/21 11:08:05;;;;;;;5.43;1.60;;;;;;;10.71;53.00;92804.06;4892620;29;20119;-54
2022/11/21 11:10:38;;;;;;;5.85;1.60;;;;;;;11.24;52.29;92795.19;4894829;29;20115;-56
2022/11/21 11:13:32;;;;;;;4.38;1.30;;;;;;;11.20;52.04;92801.56;4877230;29;20161;-54
2022/11/21 11:16:20;;;;;;;6.50;1.23;;;;;;;9.62;55.89;92785.91;4893811;29;21065;-53
2022/11/21 11:19:12;;;;;;;6.07;1.50;;;;;;;9.73;56.43;92780.91;4877556;29;20056;-54
2022/11/21 11:21:43;;;;;;;6.30;1.30;;;;;;;9.34;58.19;92782.84;4894171;29;20045;-56
2022/11/21 11:24:09;;;;;;;3.13;1.00;;;;;;;9.20;57.28;92789.47;4893518;29;20515;-51
2022/11/21 11:27:03;;;;;;;4.63;1.30;;;;;;;8.89;58.24;92778.19;4877435;29;20119;-52
2022/11/21 11:29:33;;;;;;;6.07;1.30;;;;;;;9.90;57.13;92778.81;4874264;29;20230;-52
2022/11/21 11:32:12;;;;;;;5.20;1.42;;;;;;;9.25;57.57;92767.03;4893221;29;20076;-55
2022/11/21 11:34:56;;;;;;;7.43;1.33;;;;;;;8.82;60.12;92760.03;4893565;29;20053;-54
2022/11/21 11:37:39;;;;;;;3.78;1.10;;;;;;;9.59;56.97;92747.25;4892949;29;20538;-53
2022/11/21 11:40:25;;;;;;;5.47;1.50;;;;;;;10.11;57.05;92747.22;4901666;29;20781;-54
2022/11/21 11:52:22;;;;;;;4.35;1.00;;;;;;;7.84;64.13;92730.84;4801358;29;20049;-54
2022/11/21 11:55:04;;;;;;;6.00;1.50;;;;;;;8.60;62.89;92718.81;4879722;29;20066;-51
2022/11/21 11:57:34;;;;;;;7.50;1.33;;;;;;;9.17;61.16;92702.75;4893871;29;20044;-51
2022/11/21 12:00:07;;;;;;;5.32;1.20;;;;;;;10.69;56.36;92686.50;4876344;29;20549;-55
2022/11/21 12:02:45;;;;;;;3.60;1.30;;;;;;;9.92;56.52;92689.47;4893483;29;20055;-56
2022/11/21 12:05:22;;;;;;;3.90;1.40;;;;;;;9.23;60.03;92692.03;4892679;29;20140;-50
2022/11/21 12:08:07;;;;;;;3.30;1.10;;;;;;;9.03;59.72;92679.28;4892389;29;20513;-54
2022/11/21 12:13:54;;;;;;;5.05;1.30;;;;;;;8.55;60.22;92659.16;4874616;29;20390;-49
2022/11/21 12:16:24;;;;;;;5.78;1.20;;;;;;;8.56;60.75;92650.53;4893408;29;20044;-50